Time;durP1;ratioP1;P1;durP2;ratioP2;P2;SDS_P1;SDS_P2;PMS_P1;PMS_P2;Temp;Humidity;BMP_temperature;BMP_pressure;BME280_temperature;BME280_humidity;BME280_pressure;Samples;Min_cycle;Max_cycle;Signal;HPM_P1;HPM_P2
2021/04/13 00:02:23;;;;;;;;;;;;;;;-142.75;66.54;80168.31;5090580;28;19927;-75
2021/04/13 00:04:51;;;;;;;;;;;;;;;-142.75;66.59;80166.34;5089613;28;19999;-75
2021/04/13 00:07:18;;;;;;;;;;;;;;;-142.75;66.70;80162.41;5090865;28;20353;-75
2021/04/13 00:09:44;;;;;;;;;;;;;;;-142.75;66.70;80166.34;5090879;28;20524;-74
2021/04/13 00:12:19;;;;;;;;;;;;;;;-142.75;66.76;80166.34;5090746;28;19918;-74
2021/04/13 00:14:45;;;;;;;;;;;;;;;-142.75;66.72;80166.34;5090999;28;19908;-75
2021/04/13 00:17:17;;;;;;;;;;;;;;;-142.75;66.73;80166.34;5093478;28;19972;-74
2021/04/13 00:19:57;;;;;;;;;;;;;;;-142.75;66.87;80162.41;5094480;28;20018;-73
2021/04/13 00:22:23;;;;;;;;;;;;;;;-142.75;66.68;80162.41;5093704;28;20412;-75
2021/04/13 00:24:48;;;;;;;;;;;;;;;-142.75;66.51;80166.34;5112662;28;19955;-73
2021/04/13 00:27:14;;;;;;;;;;;;;;;-142.75;66.42;80176.19;5113595;28;20388;-75
2021/04/13 00:29:40;;;;;;;;;;;;;;;-142.75;66.33;80182.09;5095925;28;19919;-75
2021/04/13 00:32:06;;;;;;;;;;;;;;;-142.75;66.58;80146.63;5104051;28;19915;-75
2021/04/13 00:37:30;;;;;;;;;;;;;;;-142.75;66.27;80166.34;5083311;28;20033;-75
2021/04/13 00:40:14;;;;;;;;;;;;;;;-142.75;66.34;80158.47;5107782;28;19912;-72
2021/04/13 00:42:39;;;;;;;;;;;;;;;-142.75;66.30;80178.16;5102958;28;20297;-74
2021/04/13 00:45:13;;;;;;;;;;;;;;;-142.75;66.14;80184.06;5108404;28;19907;-74
2021/04/13 00:47:40;;;;;;;;;;;;;;;-142.75;66.04;80184.06;5112544;28;19919;-74
2021/04/13 00:50:26;;;;;;;;;;;;;;;-142.75;66.26;80193.94;5101145;28;19920;-76
2021/04/13 00:52:54;;;;;;;;;;;;;;;-142.75;66.28;80205.75;5093560;28;20382;-74
2021/04/13 00:55:22;;;;;;;;;;;;;;;-142.75;66.21;80209.69;5093375;28;19962;-74
2021/04/13 00:57:57;;;;;;;;;;;;;;;-142.75;66.22;80213.63;5090711;28;19912;-74
2021/04/13 01:00:27;;;;;;;;;;;;;;;-142.75;66.33;80221.50;5105306;28;20381;-73
2021/04/13 01:03:00;;;;;;;;;;;;;;;-142.75;66.41;80227.41;5099908;28;19916;-74
2021/04/13 01:05:33;;;;;;;;;;;;;;;-142.75;66.58;80221.50;5097169;28;19995;-74
2021/04/13 01:07:58;;;;;;;;;;;;;;;-142.75;66.87;80217.56;5106648;28;20417;-74
2021/04/13 01:10:30;;;;;;;;;;;;;;;-142.75;66.66;80225.44;5098718;28;19916;-74
2021/04/13 01:13:05;;;;;;;;;;;;;;;-142.75;66.71;80225.44;5096819;28;19912;-73
2021/04/13 01:15:31;;;;;;;;;;;;;;;-142.75;66.82;80227.41;5106987;28;19912;-74
2021/04/13 01:17:57;;;;;;;;;;;;;;;-142.75;66.91;80225.44;5094880;28;19966;-75
2021/04/13 01:20:30;;;;;;;;;;;;;;;-142.75;66.98;80221.50;5102511;28;19939;-71
2021/04/13 01:23:03;;;;;;;;;;;;;;;-142.75;66.67;80239.25;5104174;28;19922;-73
2021/04/13 01:25:33;;;;;;;;;;;;;;;-142.75;66.88;80237.28;5105014;28;19915;-73
2021/04/13 01:28:00;;;;;;;;;;;;;;;-142.75;67.07;80237.28;5107549;28;19911;-73
2021/04/13 01:30:37;;;;;;;;;;;;;;;-142.75;66.95;80237.28;5096145;28;19959;-73
2021/04/13 01:33:08;;;;;;;;;;;;;;;-142.75;67.09;80231.34;5093290;28;19919;-74
2021/04/13 01:35:33;;;;;;;;;;;;;;;-142.75;67.32;80225.44;5101836;28;20377;-74
2021/04/13 01:38:16;;;;;;;;;;;;;;;-142.75;67.29;80227.41;5113439;28;19940;-74
2021/04/13 01:41:03;;;;;;;;;;;;;;;-142.75;66.98;80233.31;5091608;28;19916;-74
2021/04/13 01:43:34;;;;;;;;;;;;;;;-142.75;67.22;80231.34;5092982;28;19915;-73
2021/04/13 01:46:00;;;;;;;;;;;;;;;-142.75;67.08;80235.31;5091793;28;19920;-73
2021/04/13 01:48:26;;;;;;;;;;;;;;;-142.75;67.25;80237.28;5091326;28;19911;-74
2021/04/13 01:50:57;;;;;;;;;;;;;;;-142.75;66.95;80241.22;5107368;28;19916;-74
2021/04/13 01:53:22;;;;;;;;;;;;;;;-142.75;67.00;80249.09;5111873;28;19916;-73
2021/04/13 01:55:49;;;;;;;;;;;;;;;-142.75;67.30;80247.13;5113296;28;19918;-74
2021/04/13 01:58:14;;;;;;;;;;;;;;;-142.75;67.72;80251.06;5094133;28;19912;-73
2021/04/13 02:00:44;;;;;;;;;;;;;;;-142.75;67.49;80253.03;5091028;28;19919;-74
2021/04/13 02:03:15;;;;;;;;;;;;;;;-142.75;67.63;80256.97;5091374;28;19916;-74
2021/04/13 02:05:43;;;;;;;;;;;;;;;-142.75;67.67;80260.91;5092623;28;20281;-74
2021/04/13 02:08:18;;;;;;;;;;;;;;;-142.75;67.67;80253.03;5091194;28;19919;-74
2021/04/13 02:10:48;;;;;;;;;;;;;;;-142.75;67.84;80260.91;5092388;28;19943;-72
2021/04/13 02:13:13;;;;;;;;;;;;;;;-142.75;67.73;80260.91;5092016;28;19992;-73
2021/04/13 02:16:02;;;;;;;;;;;;;;;-142.75;67.72;80255.00;5112860;28;19957;-73
2021/04/13 02:18:30;;;;;;;;;;;;;;;-142.75;67.93;80258.94;5111740;28;20376;-74
2021/04/13 02:20:56;;;;;;;;;;;;;;;-142.75;67.74;80256.97;5111152;28;19912;-74
2021/04/13 02:23:26;;;;;;;;;;;;;;;-142.75;67.79;80266.81;5112054;28;19920;-73
2021/04/13 02:25:51;;;;;;;;;;;;;;;-142.75;67.77;80264.84;5112618;28;19911;-74
2021/04/13 02:28:17;;;;;;;;;;;;;;;-142.75;67.81;80264.84;5102375;28;20301;-74
2021/04/13 02:30:46;;;;;;;;;;;;;;;-142.75;67.71;80260.91;5092707;28;19912;-74
2021/04/13 02:33:17;;;;;;;;;;;;;;;-142.75;67.10;80264.84;5101375;28;20265;-73
2021/04/13 02:35:43;;;;;;;;;;;;;;;-142.75;67.27;80268.78;5098234;28;19919;-73
2021/04/13 02:38:14;;;;;;;;;;;;;;;-142.75;67.45;80258.94;5100826;28;19919;-73
2021/04/13 02:41:04;;;;;;;;;;;;;;;-142.75;67.39;80258.94;5103792;28;19971;-74
2021/04/13 02:43:32;;;;;;;;;;;;;;;-142.75;67.72;80249.09;5107855;28;19916;-74
2021/04/13 02:45:59;;;;;;;;;;;;;;;-142.75;67.72;80245.16;5101691;28;19999;-74
2021/04/13 02:48:27;;;;;;;;;;;;;;;-142.75;67.30;80239.25;5091624;28;19912;-74
2021/04/13 02:50:55;;;;;;;;;;;;;;;-142.75;67.25;80249.09;5090253;28;19998;-75
2021/04/13 02:53:27;;;;;;;;;;;;;;;-142.75;67.36;80253.03;5090449;28;19919;-74
2021/04/13 02:55:54;;;;;;;;;;;;;;;-142.75;67.12;80266.81;5090658;28;19959;-73
2021/04/13 02:58:21;;;;;;;;;;;;;;;-142.75;67.29;80266.81;5091672;28;19923;-73
2021/04/13 03:00:48;;;;;;;;;;;;;;;-142.75;67.64;80270.75;5091432;28;19919;-74
2021/04/13 03:03:16;;;;;;;;;;;;;;;-142.75;67.72;80276.69;5090164;28;19916;-73
2021/04/13 03:05:42;;;;;;;;;;;;;;;-142.75;67.72;80270.75;5091568;28;19923;-74
2021/04/13 03:08:09;;;;;;;;;;;;;;;-142.75;67.51;80264.84;5090167;28;19912;-74
2021/04/13 03:10:37;;;;;;;;;;;;;;;-142.75;67.79;80266.81;5091200;28;19912;-73
2021/04/13 03:13:09;;;;;;;;;;;;;;;-142.75;67.51;80258.94;5091508;28;19964;-73
2021/04/13 03:15:36;;;;;;;;;;;;;;;-142.75;67.38;80264.84;5091373;28;19923;-73
2021/04/13 03:18:04;;;;;;;;;;;;;;;-142.75;67.38;80268.78;5090690;28;19922;-75
2021/04/13 03:20:40;;;;;;;;;;;;;;;-142.75;67.52;80266.81;5101854;28;19937;-73
2021/04/13 03:23:06;;;;;;;;;;;;;;;-142.75;67.43;80268.78;5100681;28;20012;-74
2021/04/13 03:25:36;;;;;;;;;;;;;;;-142.75;67.56;80264.84;5098167;28;19920;-73
2021/04/13 03:28:05;;;;;;;;;;;;;;;-142.75;67.55;80268.78;5094825;28;19916;-73
2021/04/13 03:30:31;;;;;;;;;;;;;;;-142.75;67.50;80264.84;5105255;28;19918;-73
2021/04/13 03:33:02;;;;;;;;;;;;;;;-142.75;67.56;80256.97;5091264;28;19911;-73
2021/04/13 03:35:29;;;;;;;;;;;;;;;-142.75;67.75;80258.94;5091192;28;19912;-74
2021/04/13 03:37:56;;;;;;;;;;;;;;;-142.75;67.53;80262.88;5091122;28;19945;-73
2021/04/13 03:40:23;;;;;;;;;;;;;;;-142.75;67.61;80266.81;5090875;28;19916;-71
2021/04/13 03:42:52;;;;;;;;;;;;;;;-142.75;67.32;80276.69;5090907;28;20479;-74
2021/04/13 03:45:18;;;;;;;;;;;;;;;-142.75;67.38;80280.63;5089772;28;19920;-73
2021/04/13 03:47:44;;;;;;;;;;;;;;;-142.75;67.57;80286.53;5089724;28;19962;-73
2021/04/13 03:50:14;;;;;;;;;;;;;;;-142.75;67.15;80294.41;5090478;28;19920;-73
2021/04/13 03:52:39;;;;;;;;;;;;;;;-142.75;67.31;80290.47;5093596;28;19918;-72
2021/04/13 03:55:19;;;;;;;;;;;;;;;-142.75;67.55;80294.41;5093931;28;20002;-73
2021/04/13 03:57:44;;;;;;;;;;;;;;;-142.75;67.25;80312.16;5094263;28;20416;-73
2021/04/13 04:00:14;;;;;;;;;;;;;;;-142.75;67.57;80300.31;5094430;28;19912;-73
2021/04/13 04:02:40;;;;;;;;;;;;;;;-142.75;67.50;80296.38;5110975;28;19922;-74
2021/04/13 04:05:09;;;;;;;;;;;;;;;-142.75;67.44;80300.31;5114657;28;19987;-73
2021/04/13 04:07:39;;;;;;;;;;;;;;;-142.75;67.61;80302.28;5100155;28;19912;-74
2021/04/13 04:10:23;;;;;;;;;;;;;;;-142.75;67.57;80298.34;5092992;28;19924;-73
2021/04/13 04:12:56;;;;;;;;;;;;;;;-142.75;67.95;80300.31;5093984;28;19912;-73
2021/04/13 04:15:26;;;;;;;;;;;;;;;-142.75;67.77;80314.13;5094047;28;19963;-73
2021/04/13 04:17:52;;;;;;;;;;;;;;;-142.75;67.67;80316.09;5093837;28;20439;-72
2021/04/13 04:20:29;;;;;;;;;;;;;;;-142.75;67.47;80323.97;5092787;28;20033;-75
2021/04/13 04:22:54;;;;;;;;;;;;;;;-142.75;67.50;80327.91;5104998;28;20617;-73
2021/04/13 04:25:30;;;;;;;;;;;;;;;-142.75;67.52;80323.97;5114808;28;19918;-73
2021/04/13 04:27:57;;;;;;;;;;;;;;;-142.75;67.75;80322.00;5112877;28;19919;-73
2021/04/13 04:30:27;;;;;;;;;;;;;;;-142.75;67.50;80323.97;5103498;28;19912;-73
2021/04/13 04:32:54;;;;;;;;;;;;;;;-142.75;67.80;80335.78;5093892;28;19930;-72
2021/04/13 04:35:34;;;;;;;;;;;;;;;-142.75;67.45;80331.84;5105464;28;19918;-73
2021/04/13 04:38:08;;;;;;;;;;;;;;;-142.75;67.62;80343.66;5104744;28;20335;-73
2021/04/13 04:40:36;;;;;;;;;;;;;;;-142.75;67.79;80337.75;5099446;28;19977;-72
2021/04/13 04:43:07;;;;;;;;;;;;;;;-142.75;67.72;80339.72;5102200;28;20416;-75
2021/04/13 04:45:47;;;;;;;;;;;;;;;-142.75;67.72;80339.72;5113861;28;19940;-73
2021/04/13 04:48:26;;;;;;;;;;;;;;;-142.75;67.67;80343.66;5113731;28;19944;-73
2021/04/13 04:50:59;;;;;;;;;;;;;;;-142.75;68.00;80337.75;5113489;28;19927;-73
2021/04/13 04:53:25;;;;;;;;;;;;;;;-142.75;67.96;80343.66;5113685;28;19911;-73
2021/04/13 04:55:51;;;;;;;;;;;;;;;-142.75;67.84;80349.56;5113225;28;19960;-73
2021/04/13 04:58:16;;;;;;;;;;;;;;;-142.75;67.68;80357.47;5112336;28;19911;-73
2021/04/13 05:00:41;;;;;;;;;;;;;;;-142.75;67.73;80357.47;5112789;28;19911;-74
2021/04/13 05:03:07;;;;;;;;;;;;;;;-142.75;67.92;80351.56;5113448;28;19923;-72
2021/04/13 05:05:32;;;;;;;;;;;;;;;-142.75;68.09;80351.56;5111864;28;19965;-73
2021/04/13 05:07:57;;;;;;;;;;;;;;;-142.75;68.21;80353.53;5104652;28;19957;-73
2021/04/13 05:10:22;;;;;;;;;;;;;;;-142.75;68.15;80355.50;5092996;28;20742;-72
2021/04/13 05:12:47;;;;;;;;;;;;;;;-142.75;67.97;80347.59;5091542;28;19912;-71
2021/04/13 05:15:13;;;;;;;;;;;;;;;-142.75;68.21;80343.66;5091542;28;20006;-73
2021/04/13 05:17:38;;;;;;;;;;;;;;;-142.75;67.91;80339.72;5092907;28;19971;-73
2021/04/13 05:20:04;;;;;;;;;;;;;;;-142.75;68.08;80327.91;5091701;28;20010;-73
2021/04/13 05:22:29;;;;;;;;;;;;;;;-142.75;68.02;80286.53;5099473;28;19919;-73
2021/04/13 05:24:54;;;;;;;;;;;;;;;-142.75;67.59;80272.75;5107683;28;19964;-73
2021/04/13 05:27:20;;;;;;;;;;;;;;;-142.75;67.10;80260.91;5097100;28;19912;-73
2021/04/13 05:29:45;;;;;;;;;;;;;;;-142.75;66.69;80217.56;5091467;28;20429;-74
2021/04/13 05:32:10;;;;;;;;;;;;;;;-142.75;66.59;80144.66;5090982;28;19920;-74
2021/04/13 05:34:35;;;;;;;;;;;;;;;-142.75;65.25;80081.63;5091304;28;19962;-73
2021/04/13 05:37:01;;;;;;;;;;;;;;;-142.75;64.13;80038.28;5092594;28;20173;-73
2021/04/13 05:39:26;;;;;;;;;;;;;;;-142.75;62.27;79989.03;5092537;28;19958;-74
2021/04/13 05:41:58;;;;;;;;;;;;;;;-142.75;61.96;79945.69;5091713;28;19983;-73
2021/04/13 05:44:23;;;;;;;;;;;;;;;-142.75;60.07;79823.53;5090931;28;19912;-74
2021/04/13 05:46:49;;;;;;;;;;;;;;;-142.75;57.30;79762.47;5083352;22;19921;-77
2021/04/13 05:49:14;;;;;;;;;;;;;;;-142.75;57.57;79790.03;5058465;28;19916;-78
2021/04/13 05:51:39;;;;;;;;;;;;;;;-142.75;56.93;79748.66;5046162;28;20284;-76
2021/04/13 05:54:04;;;;;;;;;;;;;;;-142.75;56.75;79721.09;5061791;28;19913;-77
2021/04/13 05:56:32;;;;;;;;;;;;;;;-142.75;55.95;79671.84;5038652;28;19913;-77
2021/04/13 05:58:58;;;;;;;;;;;;;;;-142.75;55.26;79596.97;5032533;28;19913;-78
2021/04/13 06:01:25;;;;;;;;;;;;;;;-142.75;54.11;79563.50;5031523;28;19913;-78
2021/04/13 06:03:51;;;;;;;;;;;;;;;-142.75;53.31;79508.34;5028322;28;19917;-79
2021/04/13 06:06:16;;;;;;;;;;;;;;;-142.75;52.14;79453.19;5045806;28;20289;-78
2021/04/13 06:08:42;;;;;;;;;;;;;;;-142.75;51.93;79398.03;5035805;28;20334;-79
2021/04/13 06:11:10;;;;;;;;;;;;;;;-142.75;51.22;79342.88;5025926;28;20286;-80
2021/04/13 06:13:35;;;;;;;;;;;;;;;-142.75;49.11;79279.84;5039629;28;20394;-80
2021/04/13 06:16:00;;;;;;;;;;;;;;;-142.75;48.60;79238.47;5047596;28;19922;-80
2021/04/13 06:18:25;;;;;;;;;;;;;;;-142.75;47.42;79169.53;5025393;28;19920;-81
2021/04/13 06:20:52;;;;;;;;;;;;;;;-142.75;46.47;79138.00;5042894;28;19963;-81
2021/04/13 06:23:17;;;;;;;;;;;;;;;-142.75;45.98;79082.84;5037546;28;20367;-80
2021/04/13 06:25:43;;;;;;;;;;;;;;;-142.75;45.37;79055.28;5037334;28;19919;-79
2021/04/13 06:28:08;;;;;;;;;;;;;;;-142.75;44.72;79004.06;5025839;28;20305;-80
2021/04/13 06:30:33;;;;;;;;;;;;;;;-142.75;44.80;78956.78;5045481;28;19939;-79
2021/04/13 06:32:59;;;;;;;;;;;;;;;-142.75;43.96;78901.66;5043800;28;19935;-79
2021/04/13 06:35:25;;;;;;;;;;;;;;;-142.75;43.98;78830.75;5022747;28;20353;-79
2021/04/13 06:37:52;;;;;;;;;;;;;;;-142.75;41.21;78759.84;5042681;28;19913;-79
2021/04/13 06:40:20;;;;;;;;;;;;;;;-142.75;41.48;78759.84;5047806;28;19971;-79
2021/04/13 06:42:56;;;;;;;;;;;;;;;-142.75;42.10;78783.47;5040577;28;19917;-79
2021/04/13 06:45:32;;;;;;;;;;;;;;;-142.75;41.13;78683.03;5042912;28;20382;-78
2021/04/13 06:48:16;;;;;;;;;;;;;;;-142.75;41.09;78621.97;5040531;28;19913;-78
2021/04/13 06:50:47;;;;;;;;;;;;;;;-142.75;40.14;78529.41;5019331;28;19945;-78
2021/04/13 06:53:32;;;;;;;;;;;;;;;-142.75;37.73;78537.28;5045090;28;20348;-78
2021/04/13 06:56:15;;;;;;;;;;;;;;;-142.75;39.05;78537.28;5033405;28;19913;-78
2021/04/13 06:58:46;;;;;;;;;;;;;;;-142.75;38.17;78541.22;5034585;28;19985;-78
2021/04/13 07:01:30;;;;;;;;;;;;;;;-142.75;37.66;78558.94;5023651;28;20374;-78
2021/04/13 07:04:02;;;;;;;;;;;;;;;-142.75;37.99;78578.63;5024493;28;19932;-77
2021/04/13 07:06:27;;;;;;;;;;;;;;;-142.75;37.67;78580.59;5038938;28;19917;-77
2021/04/13 07:08:58;;;;;;;;;;;;;;;-142.75;38.66;78627.88;5032453;28;19958;-77
2021/04/13 07:11:26;;;;;;;;;;;;;;;-142.75;38.31;78629.84;5030867;28;19913;-77
2021/04/13 07:13:57;;;;;;;;;;;;;;;-142.75;37.37;78596.38;5021390;28;19923;-79
2021/04/13 07:16:25;;;;;;;;;;;;;;;-142.75;37.74;78588.50;5034763;28;19948;-78
2021/04/13 07:18:57;;;;;;;;;;;;;;;-142.75;37.70;78598.34;5033956;28;20375;-77
2021/04/13 07:21:39;;;;;;;;;;;;;;;-142.75;38.13;78539.25;5015782;28;20545;-77
2021/04/13 07:24:11;;;;;;;;;;;;;;;-142.75;37.34;78527.44;5033419;28;20496;-78
2021/04/13 07:26:39;;;;;;;;;;;;;;;-142.75;36.22;78482.13;5035189;28;19912;-78
2021/04/13 07:29:12;;;;;;;;;;;;;;;-142.75;37.22;78468.34;5034717;28;19913;-78
2021/04/13 07:31:46;;;;;;;;;;;;;;;-142.75;35.91;78452.59;5014073;28;19967;-78
2021/04/13 07:34:11;;;;;;;;;;;;;;;-142.75;36.74;78444.72;5016818;28;20015;-77
2021/04/13 07:36:43;;;;;;;;;;;;;;;-142.75;36.35;78346.25;5022230;28;19913;-78
2021/04/13 07:39:09;;;;;;;;;;;;;;;-142.75;34.55;78312.78;5013879;28;19921;-77
2021/04/13 07:41:45;;;;;;;;;;;;;;;-142.75;36.21;78411.25;5007630;28;19978;-77
2021/04/13 07:44:31;;;;;;;;;;;;;;;-142.75;35.58;78543.19;5034368;28;19975;-78
2021/04/13 07:46:56;;;;;;;;;;;;;;;-142.75;38.64;78653.47;5029104;28;19913;-78
2021/04/13 07:49:40;;;;;;;;;;;;;;;-142.75;39.49;78750.00;5017795;28;19944;-78
2021/04/13 07:52:19;;;;;;;;;;;;;;;-142.75;39.81;78840.59;5034826;28;19920;-77
2021/04/13 07:54:52;;;;;;;;;;;;;;;-142.75;38.61;78751.97;5034170;28;19924;-78
2021/04/13 07:57:27;;;;;;;;;;;;;;;-142.75;37.63;78600.31;5049992;28;20484;-77
2021/04/13 08:00:12;;;;;;;;;;;;;;;-142.75;36.48;78456.53;5021270;28;19990;-78
2021/04/13 08:02:38;;;;;;;;;;;;;;;-142.75;35.48;78385.63;5013514;28;19923;-77
2021/04/13 08:05:05;;;;;;;;;;;;;;;-142.75;33.82;78385.63;5034824;28;19913;-77
2021/04/13 08:07:33;;;;;;;;;;;;;;;-142.75;34.58;78362.00;5032499;28;19920;-77
2021/04/13 08:10:10;;;;;;;;;;;;;;;-142.75;34.83;78334.44;5015613;28;19913;-77
2021/04/13 08:12:49;;;;;;;;;;;;;;;-142.75;34.58;78259.59;5027161;28;20055;-77
2021/04/13 08:15:16;;;;;;;;;;;;;;;-142.75;34.17;78204.47;5053374;28;19978;-77
2021/04/13 08:17:50;;;;;;;;;;;;;;;-142.75;33.33;78133.56;5035262;28;19924;-78
2021/04/13 08:20:23;;;;;;;;;;;;;;;-142.75;33.44;78066.63;5045474;28;19912;-77
2021/04/13 08:22:53;;;;;;;;;;;;;;;-142.75;32.66;78042.97;5012374;28;20291;-75
2021/04/13 08:25:30;;;;;;;;;;;;;;;-142.75;32.50;78035.09;5010257;28;19924;-76
2021/04/13 08:28:15;;;;;;;;;;;;;;;-142.75;33.17;78011.47;5013008;28;19979;-76
2021/04/13 08:30:49;;;;;;;;;;;;;;;-142.75;31.47;77991.78;5001153;28;19993;-76
2021/04/13 08:33:20;;;;;;;;;;;;;;;-142.75;31.88;77891.34;5045872;28;20298;-75
2021/04/13 08:36:01;;;;;;;;;;;;;;;-142.75;30.80;77897.25;5038533;28;19920;-75
2021/04/13 08:38:45;;;;;;;;;;;;;;;-142.75;30.80;77907.09;5036923;28;19970;-75
2021/04/13 08:41:11;;;;;;;;;;;;;;;-142.75;30.88;78300.97;5027381;28;19919;-76
2021/04/13 08:43:44;;;;;;;;;;;;;;;-142.75;33.19;78283.22;5032820;28;20377;-77
2021/04/13 08:46:11;;;;;;;;;;;;;;;-142.75;31.45;78056.78;5017508;28;19927;-76
2021/04/13 08:48:38;;;;;;;;;;;;;;;-142.75;30.25;77901.19;5040394;28;20347;-77
2021/04/13 08:51:09;;;;;;;;;;;;;;;-142.75;28.30;77820.47;5047446;28;20378;-76
2021/04/13 08:53:47;;;;;;;;;;;;;;;-142.75;28.35;77850.00;5039370;28;20364;-74
2021/04/13 08:56:18;;;;;;;;;;;;;;;-142.75;29.18;77885.44;5030895;28;19917;-76
2021/04/13 08:58:45;;;;;;;;;;;;;;;-142.75;29.09;77956.34;5037122;28;20382;-75
2021/04/13 09:01:20;;;;;;;;;;;;;;;-142.75;29.12;77822.44;5047838;28;19912;-76
2021/04/13 09:03:46;;;;;;;;;;;;;;;-142.75;30.27;77755.50;5030332;28;20018;-75
2021/04/13 09:06:19;;;;;;;;;;;;;;;-142.75;29.46;77619.63;5042003;28;20385;-75
2021/04/13 09:08:50;;;;;;;;;;;;;;;-142.75;29.77;77660.97;5016518;28;19996;-76
2021/04/13 09:11:23;;;;;;;;;;;;;;;-142.75;28.59;77727.94;5045493;28;20386;-75
2021/04/13 09:14:03;;;;;;;;;;;;;;;-142.75;30.01;77753.53;5023819;28;19967;-75
2021/04/13 09:16:29;;;;;;;;;;;;;;;-142.75;29.14;77767.31;5015284;28;19932;-75
2021/04/13 09:18:56;;;;;;;;;;;;;;;-142.75;29.24;77796.84;5033530;28;19913;-74
2021/04/13 09:21:25;;;;;;;;;;;;;;;-142.75;29.00;77757.47;5033663;28;19943;-75
2021/04/13 09:23:53;;;;;;;;;;;;;;;-142.75;27.59;77777.16;5038032;28;19924;-75
2021/04/13 09:26:24;;;;;;;;;;;;;;;-142.75;28.50;77723.97;5038474;28;19939;-75
2021/04/13 09:28:49;;;;;;;;;;;;;;;-142.75;27.44;77696.41;5020548;28;19920;-75
2021/04/13 09:31:16;;;;;;;;;;;;;;;-142.75;27.96;77590.09;5015622;28;19913;-75
2021/04/13 09:33:42;;;;;;;;;;;;;;;-142.75;26.81;77712.16;5036700;28;19921;-75
2021/04/13 09:36:07;;;;;;;;;;;;;;;-142.75;28.46;77688.53;5031398;28;19913;-76
2021/04/13 09:39:02;;;;;;;;;;;;;;;-142.75;27.68;77582.22;5055006;28;20259;-74
2021/04/13 09:41:39;;;;;;;;;;;;;;;-142.75;27.33;77586.16;4994905;28;19921;-76
2021/04/13 09:44:13;;;;;;;;;;;;;;;-142.75;28.39;77534.97;5032647;28;20467;-74
2021/04/13 09:47:02;;;;;;;;;;;;;;;-142.75;27.63;77584.19;5033262;28;20322;-75
2021/04/13 09:50:00;;;;;;;;;;;;;;;-142.75;27.13;77523.16;5032983;28;19913;-76
2021/04/13 09:52:31;;;;;;;;;;;;;;;-142.75;27.46;77540.88;4975288;28;19920;-75
2021/04/13 09:55:05;;;;;;;;;;;;;;;-142.75;27.96;77680.66;5035205;28;19913;-75
2021/04/13 09:57:49;;;;;;;;;;;;;;;-142.75;27.78;77706.25;5032941;28;19959;-75
2021/04/13 10:00:17;;;;;;;;;;;;;;;-142.75;26.94;77657.03;5016876;28;19913;-76
2021/04/13 10:02:57;;;;;;;;;;;;;;;-142.75;27.63;77867.72;5031640;28;19925;-74
2021/04/13 10:05:30;;;;;;;;;;;;;;;-142.75;31.08;77966.19;5037927;28;19916;-75
2021/04/13 10:07:55;;;;;;;;;;;;;;;-142.75;27.56;77777.16;5044727;28;19917;-74
2021/04/13 10:10:23;;;;;;;;;;;;;;;-142.75;27.87;77625.53;5018594;28;19921;-75
2021/04/13 10:13:03;;;;;;;;;;;;;;;-142.75;26.97;77668.84;5032133;28;19919;-75
2021/04/13 10:15:28;;;;;;;;;;;;;;;-142.75;27.37;77767.31;5019838;28;19968;-75
2021/04/13 10:18:13;;;;;;;;;;;;;;;-142.75;30.31;77976.03;5028997;28;20529;-76
2021/04/13 10:20:57;;;;;;;;;;;;;;;-142.75;31.15;78186.75;5039657;28;20430;-76
2021/04/13 10:23:25;;;;;;;;;;;;;;;-142.75;31.03;78121.75;5033571;28;19924;-75
2021/04/13 10:26:00;;;;;;;;;;;;;;;-142.75;29.66;78157.19;5052709;28;19955;-75
2021/04/13 10:28:31;;;;;;;;;;;;;;;-142.75;29.99;78078.44;5034585;28;19916;-75
2021/04/13 10:31:11;;;;;;;;;;;;;;;-142.75;30.69;77958.31;5052287;28;19913;-75
2021/04/13 10:33:48;;;;;;;;;;;;;;;-142.75;30.87;78188.72;5051725;28;19920;-75
2021/04/13 10:36:16;;;;;;;;;;;;;;;-142.75;31.30;78362.00;5018948;28;20382;-74
2021/04/13 10:39:07;;;;;;;;;;;;;;;-142.75;32.58;78428.97;5038959;28;19947;-75
2021/04/13 10:41:53;;;;;;;;;;;;;;;-142.75;33.82;78627.88;5039115;28;20290;-75
2021/04/13 10:44:24;;;;;;;;;;;;;;;-142.75;33.55;78493.97;5014712;28;19923;-75
2021/04/13 10:47:01;;;;;;;;;;;;;;;-142.75;32.40;78287.16;5013381;28;19913;-75
2021/04/13 10:49:53;;;;;;;;;;;;;;;-142.75;31.10;77991.78;5032485;28;20393;-75
2021/04/13 10:52:33;;;;;;;;;;;;;;;-142.75;30.04;77911.06;5036121;28;19927;-76
2021/04/13 10:54:58;;;;;;;;;;;;;;;-142.75;29.33;77913.03;5035832;28;19924;-76
2021/04/13 10:57:39;;;;;;;;;;;;;;;-142.75;30.03;78157.19;5043556;28;20004;-76
2021/04/13 11:00:16;;;;;;;;;;;;;;;-142.75;31.69;78295.06;5051608;28;19995;-77
2021/04/13 11:03:01;;;;;;;;;;;;;;;-142.75;31.71;78470.31;5051107;28;19927;-76
2021/04/13 11:05:45;;;;;;;;;;;;;;;-142.75;31.69;78584.56;5050918;28;19917;-76
2021/04/13 11:08:33;;;;;;;;;;;;;;;-142.75;34.05;78570.75;5051479;28;19916;-76
2021/04/13 11:11:14;;;;;;;;;;;;;;;-142.75;33.14;78560.91;5051067;28;19912;-75
2021/04/13 11:13:39;;;;;;;;;;;;;;;-142.75;32.92;78344.28;5033521;28;19913;-76
2021/04/13 11:16:24;;;;;;;;;;;;;;;-142.75;30.66;78318.69;5033462;28;19974;-76
2021/04/13 11:19:02;;;;;;;;;;;;;;;-142.75;32.22;78527.44;5043888;28;19913;-76
2021/04/13 11:21:43;;;;;;;;;;;;;;;-142.75;33.40;78700.75;5033076;28;19995;-76
2021/04/13 11:24:26;;;;;;;;;;;;;;;-142.75;33.80;78777.56;5051125;28;20297;-75
2021/04/13 11:27:11;;;;;;;;;;;;;;;-142.75;36.21;78801.19;5033138;28;19919;-76
2021/04/13 11:29:55;;;;;;;;;;;;;;;-142.75;35.00;78830.75;5051055;28;19973;-76
2021/04/13 11:32:39;;;;;;;;;;;;;;;-142.75;35.01;78791.34;5032918;28;19913;-76
2021/04/13 11:35:28;;;;;;;;;;;;;;;-142.75;33.53;78545.16;5050973;28;19920;-75
2021/04/13 11:38:21;;;;;;;;;;;;;;;-142.75;33.52;78413.22;5051089;28;20400;-76
2021/04/13 11:40:54;;;;;;;;;;;;;;;-142.75;30.77;78293.06;5033116;28;19919;-76
2021/04/13 11:43:23;;;;;;;;;;;;;;;-142.75;33.08;78365.94;5051012;28;19972;-76
2021/04/13 11:48:25;;;;;;;;;;;;;;;-142.75;35.66;78696.81;5099438;28;19981;-73
2021/04/13 11:51:10;;;;;;;;;;;;;;;-142.75;34.78;78746.03;5091184;28;19915;-72
2021/04/13 11:53:39;;;;;;;;;;;;;;;-142.75;35.61;78730.28;5111031;28;19911;-72
2021/04/13 11:56:23;;;;;;;;;;;;;;;-142.75;34.69;78728.31;5088941;28;19962;-73
2021/04/13 11:59:07;;;;;;;;;;;;;;;-142.75;35.11;78818.91;5052934;28;19958;-73
2021/04/13 12:01:33;;;;;;;;;;;;;;;-142.75;35.40;78818.91;5070567;28;19912;-72
2021/04/13 12:04:00;;;;;;;;;;;;;;;-142.75;37.15;78836.66;5070764;28;20011;-71
2021/04/13 12:06:44;;;;;;;;;;;;;;;-142.75;36.80;78820.88;5048576;28;19926;-73
2021/04/13 12:09:10;;;;;;;;;;;;;;;-142.75;37.58;78793.31;5066464;28;19920;-72
2021/04/13 12:11:42;;;;;;;;;;;;;;;-142.75;36.61;78748.03;5068373;28;19961;-73
2021/04/13 12:14:43;;;;;;;;;;;;;;;-142.75;33.64;78767.72;5081417;28;19988;-73
2021/04/13 12:17:28;;;;;;;;;;;;;;;-142.75;35.50;78742.09;5000203;28;19964;-72
2021/04/13 12:20:13;;;;;;;;;;;;;;;-142.75;34.63;78732.25;5077408;28;19919;-74
2021/04/13 12:22:38;;;;;;;;;;;;;;;-142.75;34.74;78799.22;5073848;28;19924;-72
2021/04/13 12:25:24;;;;;;;;;;;;;;;-142.75;36.45;78787.41;5074419;28;19913;-73
2021/04/13 12:28:00;;;;;;;;;;;;;;;-142.75;35.75;78836.66;5055816;28;19948;-72
2021/04/13 12:30:25;;;;;;;;;;;;;;;-142.75;35.90;78893.78;5071954;28;20297;-72
2021/04/13 12:32:50;;;;;;;;;;;;;;;-142.75;36.75;78889.81;5069421;28;19931;-72
2021/04/13 12:35:34;;;;;;;;;;;;;;;-142.75;36.98;78923.31;5072500;28;19915;-71
2021/04/13 12:37:59;;;;;;;;;;;;;;;-142.75;35.74;78905.59;5065676;28;20373;-73
2021/04/13 12:40:26;;;;;;;;;;;;;;;-142.75;35.96;78899.69;5076033;28;19965;-73
2021/04/13 12:42:52;;;;;;;;;;;;;;;-142.75;35.07;78909.53;5094131;28;19916;-74
2021/04/13 12:45:18;;;;;;;;;;;;;;;-142.75;34.52;78921.34;5056549;28;20385;-72
2021/04/13 12:47:45;;;;;;;;;;;;;;;-142.75;35.71;78941.03;5052626;28;19912;-72
2021/04/13 12:50:29;;;;;;;;;;;;;;;-142.75;36.02;78939.06;5059028;28;20281;-72
2021/04/13 12:52:54;;;;;;;;;;;;;;;-142.75;35.33;78903.63;5093596;28;19912;-73
2021/04/13 12:55:21;;;;;;;;;;;;;;;-142.75;34.84;78923.31;5067676;28;19927;-72
2021/04/13 12:57:55;;;;;;;;;;;;;;;-142.75;35.14;78933.16;5078776;28;20407;-73